createdAt,value
2019-04-11T07:37:19.092Z,4.43
2019-04-11T07:40:09.514Z,3.57
2019-04-11T07:42:59.410Z,4.53
2019-04-11T07:45:30.194Z,4.73
2019-04-11T07:48:12.866Z,3.83
2019-04-11T07:50:44.528Z,3.87
2019-04-11T07:53:17.943Z,3.33
2019-04-11T07:55:49.636Z,4.03
2019-04-11T07:58:23.802Z,4.20
2019-04-11T08:00:59.279Z,3.70
2019-04-11T08:03:49.192Z,3.83
2019-04-11T08:06:39.040Z,3.93
2019-04-11T08:09:13.186Z,3.30
2019-04-11T08:11:46.222Z,4.10
2019-04-11T08:14:37.602Z,3.07
2019-04-11T08:17:11.463Z,3.73
2019-04-11T08:20:00.678Z,3.33
2019-04-11T08:22:39.577Z,4.23
2019-04-11T08:25:15.308Z,3.10
2019-04-11T08:28:00.256Z,3.20
2019-04-11T08:30:28.041Z,3.00
2019-04-11T08:33:02.410Z,2.23
2019-04-11T08:35:36.622Z,2.60
2019-04-11T08:38:22.490Z,1.90
2019-04-11T08:41:02.973Z,2.57
2019-04-11T08:43:35.376Z,1.77
2019-04-11T08:46:15.012Z,2.20
2019-04-11T08:48:46.230Z,1.87
2019-04-11T08:51:19.293Z,1.67
2019-04-11T08:54:09.112Z,0.83
2019-04-11T08:56:43.192Z,1.33
2019-04-11T08:59:22.321Z,0.70
2019-04-11T09:01:53.970Z,1.00
2019-04-11T09:04:43.941Z,1.00
2019-04-11T09:07:17.101Z,0.93
2019-04-11T09:10:07.485Z,0.77
2019-04-11T09:12:40.741Z,1.00
2019-04-11T09:15:35.238Z,0.70
2019-04-11T09:18:10.381Z,0.90
2019-04-11T09:20:47.800Z,0.87
2019-04-11T09:23:19.764Z,1.20
2019-04-11T09:26:01.719Z,0.80
2019-04-11T09:31:09.180Z,1.27
2019-04-11T09:33:57.713Z,0.93
2019-04-11T09:39:35.053Z,1.07
2019-04-11T09:42:10.151Z,0.77
2019-04-11T09:47:30.477Z,1.13
2019-04-11T09:50:12.981Z,0.90
2019-04-11T09:52:49.573Z,0.63
2019-04-11T09:55:34.934Z,0.87
2019-04-11T09:58:08.961Z,1.00
2019-04-11T10:00:45.549Z,1.03
2019-04-11T10:03:19.636Z,0.77
2019-04-11T10:05:52.951Z,0.97
2019-04-11T10:08:41.735Z,1.40
2019-04-11T10:11:32.490Z,1.43
2019-04-11T10:14:07.257Z,0.90
2019-04-11T10:16:44.350Z,1.00
2019-04-11T10:19:27.762Z,0.90
2019-04-11T10:22:02.780Z,0.90
2019-04-11T10:24:37.012Z,0.90
2019-04-11T10:27:10.092Z,0.83
2019-04-11T10:29:59.369Z,0.90
2019-04-11T10:32:35.442Z,0.80
2019-04-11T10:35:08.799Z,0.97
2019-04-11T10:40:32.268Z,0.80
2019-04-11T10:43:04.333Z,0.70
2019-04-11T10:45:55.209Z,1.00
2019-04-11T10:48:34.526Z,0.70
2019-04-11T10:53:39.541Z,0.90
2019-04-11T10:56:30.498Z,0.70
2019-04-11T10:59:02.035Z,1.10
2019-04-11T11:01:48.412Z,0.60
2019-04-11T11:04:25.479Z,0.70
2019-04-11T11:07:00.164Z,0.50
2019-04-11T11:09:32.297Z,0.70
2019-04-11T11:12:17.448Z,0.60
2019-04-11T11:15:09.531Z,0.60
2019-04-11T11:18:32.084Z,0.60
2019-04-11T11:23:29.093Z,0.87
2019-04-11T11:26:05.220Z,0.60
2019-04-11T11:28:38.736Z,0.67
2019-04-11T11:33:46.947Z,0.97
2019-04-11T11:36:19.370Z,0.90
2019-04-11T11:39:02.438Z,1.13
2019-04-11T11:41:54.523Z,1.20
2019-04-11T11:44:28.652Z,1.00
2019-04-11T11:47:18.117Z,1.50
2019-04-11T11:49:57.162Z,1.40
2019-04-11T11:52:36.514Z,1.50
2019-04-11T11:55:10.364Z,1.90
2019-04-11T11:57:43.359Z,1.53
2019-04-11T12:00:23.469Z,1.30
2019-04-11T12:02:59.363Z,1.40
2019-04-11T12:05:32.762Z,1.07
2019-04-11T12:08:08.794Z,1.40
2019-04-11T12:10:44.023Z,1.90
2019-04-11T12:13:34.631Z,1.70
2019-04-11T12:16:16.024Z,1.63
2019-04-11T12:18:52.645Z,2.37
2019-04-11T12:21:33.228Z,1.90
2019-04-11T12:24:08.047Z,1.90
2019-04-11T12:26:44.060Z,2.27
2019-04-11T12:31:55.725Z,1.70
2019-04-11T12:37:19.806Z,1.90
2019-04-11T12:45:17.224Z,1.10
2019-04-11T12:47:48.529Z,1.10
2019-04-11T12:50:23.063Z,1.00
2019-04-11T12:53:02.289Z,0.73
2019-04-11T12:55:36.299Z,1.47
2019-04-11T12:58:24.985Z,0.80
2019-04-11T13:01:14.365Z,1.10
2019-04-11T13:04:05.218Z,1.00
2019-04-11T13:06:47.350Z,0.80
2019-04-11T13:09:20.645Z,1.07
2019-04-11T13:12:02.594Z,0.80
2019-04-11T13:14:44.639Z,1.00
2019-04-11T13:17:29.825Z,0.80
2019-04-11T13:20:13.224Z,0.80
2019-04-11T13:22:44.946Z,0.87
2019-04-11T13:25:34.228Z,0.90
2019-04-11T13:28:05.505Z,0.90
2019-04-11T13:30:57.586Z,0.57
2019-04-11T13:33:28.587Z,1.10
2019-04-11T13:36:01.541Z,0.80
2019-04-11T13:38:34.481Z,0.80
2019-04-11T13:41:10.513Z,1.00
2019-04-11T13:43:43.557Z,0.80
2019-04-11T13:46:33.028Z,0.80
2019-04-11T13:49:06.078Z,0.70
2019-04-11T13:51:49.792Z,0.80
2019-04-11T13:57:05.271Z,0.90
2019-04-11T13:59:36.379Z,1.13
2019-04-11T14:02:13.634Z,0.87
2019-04-11T14:04:51.221Z,0.80
2019-04-11T14:07:24.253Z,0.80
2019-04-11T14:10:07.077Z,0.93
2019-04-11T14:12:39.042Z,0.73
2019-04-11T14:15:24.234Z,0.70
2019-04-11T14:18:13.405Z,0.73
2019-04-11T14:20:47.568Z,0.93
2019-04-11T14:23:24.644Z,1.03
2019-04-11T14:26:10.213Z,1.37
2019-04-11T14:28:43.326Z,1.00
2019-04-11T14:31:33.224Z,0.70
2019-04-11T14:37:22.130Z,1.43
2019-04-11T14:39:58.411Z,1.47
2019-04-11T14:42:42.204Z,2.07
2019-04-11T14:45:14.370Z,1.00
2019-04-11T14:48:03.650Z,1.20
2019-04-11T14:50:40.796Z,1.00
2019-04-11T14:53:31.063Z,0.93
2019-04-11T14:56:04.390Z,2.30
2019-04-11T14:58:43.307Z,1.83
2019-04-11T15:01:16.601Z,1.40
2019-04-11T15:04:01.835Z,1.07
2019-04-11T15:06:38.220Z,2.80
2019-04-11T15:09:09.266Z,1.50
2019-04-11T15:11:55.201Z,1.60
2019-04-11T15:14:47.533Z,1.40
2019-04-11T15:17:19.667Z,1.70
2019-04-11T15:20:02.334Z,1.80
2019-04-11T15:22:50.245Z,1.43
2019-04-11T15:25:28.236Z,3.40
2019-04-11T15:28:08.064Z,1.27
2019-04-11T15:30:50.518Z,1.50
2019-04-11T15:33:30.265Z,1.63
2019-04-11T15:36:03.541Z,1.50
2019-04-11T15:38:53.341Z,1.20
2019-04-11T15:41:25.484Z,1.37
2019-04-11T15:44:15.031Z,1.13
2019-04-11T15:46:47.905Z,1.30
2019-04-11T15:49:29.839Z,1.93
2019-04-11T15:51:56.038Z,1.50
2019-04-11T15:54:32.462Z,2.23
2019-04-11T15:57:05.831Z,1.70
2019-04-11T15:59:37.224Z,2.20
2019-04-11T16:02:25.395Z,1.50
2019-04-11T16:04:59.350Z,1.83
2019-04-11T16:07:52.214Z,1.70
2019-04-11T16:10:25.420Z,1.67
2019-04-11T16:13:14.839Z,2.33
2019-04-11T16:15:50.648Z,1.87
2019-04-11T16:18:33.086Z,1.67
2019-04-11T16:21:24.290Z,1.50
2019-04-11T16:23:57.609Z,3.27
2019-04-11T16:26:34.036Z,1.83
2019-04-11T16:29:19.299Z,1.20
2019-04-11T16:31:51.203Z,1.10
2019-04-11T16:34:48.391Z,1.80
2019-04-11T16:37:17.565Z,1.73
2019-04-11T16:40:04.465Z,1.27
2019-04-11T16:42:37.482Z,1.20
2019-04-11T16:45:20.035Z,1.17
2019-04-11T16:47:56.269Z,0.87
2019-04-11T16:52:57.975Z,1.40
2019-04-11T16:55:29.256Z,1.10
2019-04-11T16:58:01.037Z,1.00
2019-04-11T17:00:32.424Z,1.43
2019-04-11T17:03:04.068Z,1.20
2019-04-11T17:05:37.227Z,1.00
2019-04-11T17:08:11.227Z,0.90
2019-04-11T17:10:59.595Z,1.10
